sensor_id;sensor_type;location;lat;lon;timestamp;temperature;humidity
18868;DHT22;9563;49.240;9.088;2023-05-29T05:02:34;14.20;99.90
18868;DHT22;9563;49.240;9.088;2023-05-29T05:05:02;14.30;99.90
18868;DHT22;9563;49.240;9.088;2023-05-29T05:07:29;14.30;99.90
18868;DHT22;9563;49.240;9.088;2023-05-29T05:09:56;14.40;99.90
18868;DHT22;9563;49.240;9.088;2023-05-29T05:12:22;14.50;99.90
18868;DHT22;9563;49.240;9.088;2023-05-29T05:14:49;14.60;99.90
18868;DHT22;9563;49.240;9.088;2023-05-29T05:17:16;14.60;99.90
18868;DHT22;9563;49.240;9.088;2023-05-29T05:19:44;14.70;99.90
18868;DHT22;9563;49.240;9.088;2023-05-29T05:22:11;14.80;99.90
18868;DHT22;9563;49.240;9.088;2023-05-29T05:24:38;14.90;99.90
18868;DHT22;9563;49.240;9.088;2023-05-29T05:27:05;15.00;99.90
18868;DHT22;9563;49.240;9.088;2023-05-29T05:29:32;15.10;99.90
18868;DHT22;9563;49.240;9.088;2023-05-29T05:31:59;15.20;99.90
18868;DHT22;9563;49.240;9.088;2023-05-29T05:34:26;15.20;99.90
18868;DHT22;9563;49.240;9.088;2023-05-29T05:36:54;15.30;99.90
18868;DHT22;9563;49.240;9.088;2023-05-29T05:39:21;15.40;99.90
18868;DHT22;9563;49.240;9.088;2023-05-29T05:41:48;15.50;99.90
18868;DHT22;9563;49.240;9.088;2023-05-29T05:44:15;15.60;99.90
18868;DHT22;9563;49.240;9.088;2023-05-29T05:46:42;15.70;99.90
18868;DHT22;9563;49.240;9.088;2023-05-29T05:49:10;15.80;99.90
18868;DHT22;9563;49.240;9.088;2023-05-29T05:51:37;15.90;99.90
18868;DHT22;9563;49.240;9.088;2023-05-29T05:54:05;16.00;99.90
18868;DHT22;9563;49.240;9.088;2023-05-29T05:56:32;16.00;99.90
18868;DHT22;9563;49.240;9.088;2023-05-29T05:58:59;16.10;99.90
18868;DHT22;9563;49.240;9.088;2023-05-29T06:01:26;16.30;99.90
18868;DHT22;9563;49.240;9.088;2023-05-29T06:03:53;16.30;99.90
18868;DHT22;9563;49.240;9.088;2023-05-29T06:06:20;16.40;99.90
18868;DHT22;9563;49.240;9.088;2023-05-29T06:08:47;16.50;99.90
18868;DHT22;9563;49.240;9.088;2023-05-29T06:11:16;16.50;99.90
18868;DHT22;9563;49.240;9.088;2023-05-29T06:13:43;16.60;99.90
18868;DHT22;9563;49.240;9.088;2023-05-29T06:16:09;16.70;99.90
18868;DHT22;9563;49.240;9.088;2023-05-29T06:18:37;16.70;99.90
18868;DHT22;9563;49.240;9.088;2023-05-29T06:21:03;16.90;99.90
18868;DHT22;9563;49.240;9.088;2023-05-29T06:23:32;17.00;99.90
18868;DHT22;9563;49.240;9.088;2023-05-29T06:26:01;17.00;99.90
18868;DHT22;9563;49.240;9.088;2023-05-29T06:28:30;17.10;99.90
18868;DHT22;9563;49.240;9.088;2023-05-29T06:30:57;17.20;99.90
18868;DHT22;9563;49.240;9.088;2023-05-29T06:33:23;17.40;99.90
18868;DHT22;9563;49.240;9.088;2023-05-29T06:35:51;17.50;99.90
18868;DHT22;9563;49.240;9.088;2023-05-29T06:38:18;17.60;99.90
18868;DHT22;9563;49.240;9.088;2023-05-29T06:40:44;17.70;99.90
18868;DHT22;9563;49.240;9.088;2023-05-29T06:43:11;17.90;99.90
18868;DHT22;9563;49.240;9.088;2023-05-29T06:45:40;18.00;99.90
18868;DHT22;9563;49.240;9.088;2023-05-29T06:48:07;18.00;99.90
18868;DHT22;9563;49.240;9.088;2023-05-29T06:50:34;18.20;99.90
18868;DHT22;9563;49.240;9.088;2023-05-29T06:53:00;18.20;99.90
18868;DHT22;9563;49.240;9.088;2023-05-29T06:55:27;18.30;99.90
18868;DHT22;9563;49.240;9.088;2023-05-29T06:57:54;18.50;99.90
18868;DHT22;9563;49.240;9.088;2023-05-29T07:00:21;18.60;99.90
18868;DHT22;9563;49.240;9.088;2023-05-29T07:02:49;18.70;99.90
18868;DHT22;9563;49.240;9.088;2023-05-29T07:05:16;18.80;99.90
18868;DHT22;9563;49.240;9.088;2023-05-29T07:07:43;19.00;99.90
18868;DHT22;9563;49.240;9.088;2023-05-29T07:10:10;19.10;99.90
18868;DHT22;9563;49.240;9.088;2023-05-29T07:12:37;19.20;99.90
18868;DHT22;9563;49.240;9.088;2023-05-29T07:15:04;19.30;99.90
18868;DHT22;9563;49.240;9.088;2023-05-29T07:17:31;19.40;99.90
18868;DHT22;9563;49.240;9.088;2023-05-29T07:19:59;19.60;99.90
18868;DHT22;9563;49.240;9.088;2023-05-29T07:22:26;19.70;99.90
18868;DHT22;9563;49.240;9.088;2023-05-29T07:24:53;19.90;99.90
18868;DHT22;9563;49.240;9.088;2023-05-29T07:27:20;20.10;99.90
18868;DHT22;9563;49.240;9.088;2023-05-29T07:29:47;20.20;99.90
18868;DHT22;9563;49.240;9.088;2023-05-29T07:32:15;20.30;99.90
18868;DHT22;9563;49.240;9.088;2023-05-29T07:34:42;20.50;99.90
18868;DHT22;9563;49.240;9.088;2023-05-29T07:37:11;20.60;99.90
18868;DHT22;9563;49.240;9.088;2023-05-29T07:39:38;20.80;99.90
18868;DHT22;9563;49.240;9.088;2023-05-29T07:42:05;21.00;99.90
18868;DHT22;9563;49.240;9.088;2023-05-29T07:44:32;21.00;99.90
18868;DHT22;9563;49.240;9.088;2023-05-29T07:46:59;21.20;99.90
18868;DHT22;9563;49.240;9.088;2023-05-29T07:49:26;21.40;99.90
18868;DHT22;9563;49.240;9.088;2023-05-29T07:51:52;21.60;99.90
18868;DHT22;9563;49.240;9.088;2023-05-29T07:54:21;21.70;99.90
18868;DHT22;9563;49.240;9.088;2023-05-29T07:56:48;21.80;99.50
18868;DHT22;9563;49.240;9.088;2023-05-29T07:59:15;22.00;99.10
18868;DHT22;9563;49.240;9.088;2023-05-29T08:01:42;22.00;98.20
18868;DHT22;9563;49.240;9.088;2023-05-29T08:04:09;22.10;98.70
18868;DHT22;9563;49.240;9.088;2023-05-29T08:06:36;22.30;99.30
18868;DHT22;9563;49.240;9.088;2023-05-29T08:09:03;22.60;97.20
18868;DHT22;9563;49.240;9.088;2023-05-29T08:11:32;22.90;98.50
18868;DHT22;9563;49.240;9.088;2023-05-29T08:13:58;23.00;96.70
18868;DHT22;9563;49.240;9.088;2023-05-29T08:16:26;23.10;96.10
18868;DHT22;9563;49.240;9.088;2023-05-29T08:18:53;23.20;95.70
18868;DHT22;9563;49.240;9.088;2023-05-29T08:21:20;23.40;96.20
18868;DHT22;9563;49.240;9.088;2023-05-29T08:23:47;23.60;97.30
18868;DHT22;9563;49.240;9.088;2023-05-29T08:26:14;23.80;94.70
18868;DHT22;9563;49.240;9.088;2023-05-29T08:28:42;23.90;93.80
18868;DHT22;9563;49.240;9.088;2023-05-29T08:31:09;24.00;92.80
18868;DHT22;9563;49.240;9.088;2023-05-29T08:33:36;23.90;93.60
18868;DHT22;9563;49.240;9.088;2023-05-29T08:36:04;23.90;92.90
18868;DHT22;9563;49.240;9.088;2023-05-29T08:38:30;24.00;92.50
18868;DHT22;9563;49.240;9.088;2023-05-29T08:40:57;23.90;93.30
18868;DHT22;9563;49.240;9.088;2023-05-29T08:43:28;24.20;93.00
18868;DHT22;9563;49.240;9.088;2023-05-29T08:46:01;24.10;92.50
18868;DHT22;9563;49.240;9.088;2023-05-29T08:48:29;24.30;92.60
18868;DHT22;9563;49.240;9.088;2023-05-29T08:50:58;24.40;91.70
18868;DHT22;9563;49.240;9.088;2023-05-29T08:53:26;24.50;91.50
18868;DHT22;9563;49.240;9.088;2023-05-29T08:55:53;24.40;90.10
18868;DHT22;9563;49.240;9.088;2023-05-29T08:58:22;24.60;91.20
18868;DHT22;9563;49.240;9.088;2023-05-29T09:00:50;24.80;90.40
18868;DHT22;9563;49.240;9.088;2023-05-29T09:03:19;24.90;90.00
18868;DHT22;9563;49.240;9.088;2023-05-29T09:05:48;24.80;87.80
18868;DHT22;9563;49.240;9.088;2023-05-29T09:08:15;24.90;89.70
18868;DHT22;9563;49.240;9.088;2023-05-29T09:10:43;24.90;86.50
18868;DHT22;9563;49.240;9.088;2023-05-29T09:13:11;24.90;87.20
18868;DHT22;9563;49.240;9.088;2023-05-29T09:15:39;25.10;88.30
18868;DHT22;9563;49.240;9.088;2023-05-29T09:18:09;25.10;84.00
18868;DHT22;9563;49.240;9.088;2023-05-29T09:20:37;25.00;85.30
18868;DHT22;9563;49.240;9.088;2023-05-29T09:23:05;25.30;86.80
18868;DHT22;9563;49.240;9.088;2023-05-29T09:25:34;25.30;87.50
18868;DHT22;9563;49.240;9.088;2023-05-29T09:28:03;25.60;86.40
18868;DHT22;9563;49.240;9.088;2023-05-29T09:30:36;25.60;82.80
18868;DHT22;9563;49.240;9.088;2023-05-29T09:33:04;25.90;83.00
18868;DHT22;9563;49.240;9.088;2023-05-29T09:35:38;26.00;82.70
18868;DHT22;9563;49.240;9.088;2023-05-29T09:38:05;26.20;82.60
18868;DHT22;9563;49.240;9.088;2023-05-29T09:40:34;26.40;81.80
18868;DHT22;9563;49.240;9.088;2023-05-29T09:43:05;26.50;79.10
18868;DHT22;9563;49.240;9.088;2023-05-29T09:45:35;26.70;81.90
18868;DHT22;9563;49.240;9.088;2023-05-29T09:48:03;26.70;80.40
18868;DHT22;9563;49.240;9.088;2023-05-29T09:50:31;26.70;79.70
18868;DHT22;9563;49.240;9.088;2023-05-29T09:53:01;26.60;74.50
18868;DHT22;9563;49.240;9.088;2023-05-29T09:55:29;26.70;73.40
18868;DHT22;9563;49.240;9.088;2023-05-29T09:57:58;26.60;76.90
18868;DHT22;9563;49.240;9.088;2023-05-29T10:00:25;26.80;78.20
18868;DHT22;9563;49.240;9.088;2023-05-29T10:02:52;26.80;73.70
18868;DHT22;9563;49.240;9.088;2023-05-29T10:05:20;26.80;72.70
18868;DHT22;9563;49.240;9.088;2023-05-29T10:07:49;27.00;74.30
18868;DHT22;9563;49.240;9.088;2023-05-29T10:10:24;26.90;74.50
18868;DHT22;9563;49.240;9.088;2023-05-29T10:12:53;27.20;74.30
18868;DHT22;9563;49.240;9.088;2023-05-29T10:15:23;27.40;77.30
18868;DHT22;9563;49.240;9.088;2023-05-29T10:17:59;27.20;73.90
18868;DHT22;9563;49.240;9.088;2023-05-29T10:20:26;27.10;72.50
18868;DHT22;9563;49.240;9.088;2023-05-29T10:22:56;26.80;73.40
18868;DHT22;9563;49.240;9.088;2023-05-29T10:25:27;26.80;73.20
18868;DHT22;9563;49.240;9.088;2023-05-29T10:27:56;26.60;71.40
18868;DHT22;9563;49.240;9.088;2023-05-29T10:30:30;26.60;70.00
18868;DHT22;9563;49.240;9.088;2023-05-29T10:36:06;26.70;71.40
18868;DHT22;9563;49.240;9.088;2023-05-29T10:38:34;26.60;71.70
18868;DHT22;9563;49.240;9.088;2023-05-29T10:41:30;26.80;70.40
18868;DHT22;9563;49.240;9.088;2023-05-29T10:43:59;27.20;71.60
18868;DHT22;9563;49.240;9.088;2023-05-29T10:49:26;27.40;69.50
18868;DHT22;9563;49.240;9.088;2023-05-29T10:51:53;27.70;69.20
18868;DHT22;9563;49.240;9.088;2023-05-29T10:54:22;27.80;68.70
18868;DHT22;9563;49.240;9.088;2023-05-29T10:56:55;28.20;68.80
18868;DHT22;9563;49.240;9.088;2023-05-29T10:59:22;28.50;67.60
18868;DHT22;9563;49.240;9.088;2023-05-29T11:01:53;28.80;66.30
18868;DHT22;9563;49.240;9.088;2023-05-29T11:04:29;28.80;64.50
18868;DHT22;9563;49.240;9.088;2023-05-29T11:06:58;28.70;62.90
18868;DHT22;9563;49.240;9.088;2023-05-29T11:09:30;28.70;66.70
18868;DHT22;9563;49.240;9.088;2023-05-29T11:12:15;28.80;64.80
18868;DHT22;9563;49.240;9.088;2023-05-29T11:14:55;28.80;63.60
18868;DHT22;9563;49.240;9.088;2023-05-29T11:17:29;28.50;63.70
18868;DHT22;9563;49.240;9.088;2023-05-29T11:19:57;28.60;66.20
18868;DHT22;9563;49.240;9.088;2023-05-29T11:22:29;28.50;65.50
18868;DHT22;9563;49.240;9.088;2023-05-29T11:24:59;28.40;66.00
18868;DHT22;9563;49.240;9.088;2023-05-29T11:27:29;28.30;62.80
18868;DHT22;9563;49.240;9.088;2023-05-29T11:29:56;28.40;63.70
18868;DHT22;9563;49.240;9.088;2023-05-29T11:32:25;28.10;62.30
18868;DHT22;9563;49.240;9.088;2023-05-29T11:34:57;28.30;62.80
18868;DHT22;9563;49.240;9.088;2023-05-29T11:37:26;28.20;63.50
18868;DHT22;9563;49.240;9.088;2023-05-29T11:39:52;28.50;61.40
18868;DHT22;9563;49.240;9.088;2023-05-29T11:42:19;28.60;62.90
18868;DHT22;9563;49.240;9.088;2023-05-29T11:44:47;28.60;62.90
18868;DHT22;9563;49.240;9.088;2023-05-29T11:47:14;28.70;63.90
18868;DHT22;9563;49.240;9.088;2023-05-29T11:49:41;28.70;63.10
18868;DHT22;9563;49.240;9.088;2023-05-29T11:52:09;28.60;62.80
18868;DHT22;9563;49.240;9.088;2023-05-29T11:54:36;28.50;64.00
18868;DHT22;9563;49.240;9.088;2023-05-29T11:57:03;28.30;61.90
18868;DHT22;9563;49.240;9.088;2023-05-29T11:59:31;28.10;63.40
18868;DHT22;9563;49.240;9.088;2023-05-29T12:02:02;27.90;64.40
18868;DHT22;9563;49.240;9.088;2023-05-29T12:04:29;27.90;63.70
18868;DHT22;9563;49.240;9.088;2023-05-29T12:06:56;28.00;61.50
18868;DHT22;9563;49.240;9.088;2023-05-29T12:09:26;28.10;61.70
18868;DHT22;9563;49.240;9.088;2023-05-29T12:11:54;28.30;62.60
18868;DHT22;9563;49.240;9.088;2023-05-29T12:14:20;28.20;63.20
18868;DHT22;9563;49.240;9.088;2023-05-29T12:16:47;28.10;62.40
18868;DHT22;9563;49.240;9.088;2023-05-29T12:19:16;28.20;65.20
18868;DHT22;9563;49.240;9.088;2023-05-29T12:21:42;28.30;63.40
18868;DHT22;9563;49.240;9.088;2023-05-29T12:24:10;28.50;60.20
18868;DHT22;9563;49.240;9.088;2023-05-29T12:26:37;28.70;63.20
18868;DHT22;9563;49.240;9.088;2023-05-29T12:29:04;28.60;64.30
18868;DHT22;9563;49.240;9.088;2023-05-29T12:31:32;28.70;63.90
18868;DHT22;9563;49.240;9.088;2023-05-29T12:34:00;28.80;63.40
18868;DHT22;9563;49.240;9.088;2023-05-29T12:36:29;28.70;63.90
18868;DHT22;9563;49.240;9.088;2023-05-29T12:38:56;28.40;63.20
18868;DHT22;9563;49.240;9.088;2023-05-29T12:41:25;28.40;63.70
18868;DHT22;9563;49.240;9.088;2023-05-29T12:43:53;28.30;63.50
18868;DHT22;9563;49.240;9.088;2023-05-29T12:46:20;28.20;63.00
18868;DHT22;9563;49.240;9.088;2023-05-29T12:48:49;28.00;62.60
18868;DHT22;9563;49.240;9.088;2023-05-29T12:51:18;28.00;63.70
18868;DHT22;9563;49.240;9.088;2023-05-29T12:53:50;28.30;62.80
18868;DHT22;9563;49.240;9.088;2023-05-29T12:56:21;28.10;62.50
18868;DHT22;9563;49.240;9.088;2023-05-29T12:58:49;28.10;63.70
18868;DHT22;9563;49.240;9.088;2023-05-29T13:01:16;28.10;65.00
18868;DHT22;9563;49.240;9.088;2023-05-29T13:03:43;28.10;62.30
18868;DHT22;9563;49.240;9.088;2023-05-29T13:06:11;28.00;62.40
18868;DHT22;9563;49.240;9.088;2023-05-29T13:08:38;28.00;61.80
18868;DHT22;9563;49.240;9.088;2023-05-29T13:11:06;28.20;62.10
18868;DHT22;9563;49.240;9.088;2023-05-29T13:13:33;28.10;60.80
18868;DHT22;9563;49.240;9.088;2023-05-29T13:16:00;28.30;62.30
18868;DHT22;9563;49.240;9.088;2023-05-29T13:18:27;28.30;62.60
18868;DHT22;9563;49.240;9.088;2023-05-29T13:20:54;28.30;62.00
18868;DHT22;9563;49.240;9.088;2023-05-29T13:23:21;28.30;65.40
18868;DHT22;9563;49.240;9.088;2023-05-29T13:25:47;28.20;62.00
18868;DHT22;9563;49.240;9.088;2023-05-29T13:28:16;28.20;62.50
18868;DHT22;9563;49.240;9.088;2023-05-29T13:30:44;28.10;66.10
18868;DHT22;9563;49.240;9.088;2023-05-29T13:33:11;28.20;62.30
18868;DHT22;9563;49.240;9.088;2023-05-29T13:35:37;28.30;59.70
18868;DHT22;9563;49.240;9.088;2023-05-29T13:38:05;28.30;61.50
18868;DHT22;9563;49.240;9.088;2023-05-29T13:40:32;28.30;60.50
18868;DHT22;9563;49.240;9.088;2023-05-29T13:42:59;28.30;60.00
18868;DHT22;9563;49.240;9.088;2023-05-29T13:45:27;28.10;58.60
18868;DHT22;9563;49.240;9.088;2023-05-29T13:47:54;28.10;61.90
18868;DHT22;9563;49.240;9.088;2023-05-29T13:50:21;28.20;60.50
18868;DHT22;9563;49.240;9.088;2023-05-29T13:52:49;28.00;60.40
18868;DHT22;9563;49.240;9.088;2023-05-29T13:55:16;28.00;63.20
18868;DHT22;9563;49.240;9.088;2023-05-29T13:57:43;28.10;62.60
18868;DHT22;9563;49.240;9.088;2023-05-29T14:00:11;28.20;59.90
18868;DHT22;9563;49.240;9.088;2023-05-29T14:02:39;28.20;61.00
18868;DHT22;9563;49.240;9.088;2023-05-29T14:05:07;28.20;58.90
18868;DHT22;9563;49.240;9.088;2023-05-29T14:07:35;28.00;62.20
18868;DHT22;9563;49.240;9.088;2023-05-29T14:10:02;27.90;61.20
18868;DHT22;9563;49.240;9.088;2023-05-29T14:12:29;27.90;61.10
18868;DHT22;9563;49.240;9.088;2023-05-29T14:14:56;27.80;58.30
18868;DHT22;9563;49.240;9.088;2023-05-29T14:17:23;27.80;61.00
18868;DHT22;9563;49.240;9.088;2023-05-29T14:19:52;27.90;60.70
18868;DHT22;9563;49.240;9.088;2023-05-29T14:22:20;27.80;60.40
18868;DHT22;9563;49.240;9.088;2023-05-29T14:24:47;27.90;59.60
18868;DHT22;9563;49.240;9.088;2023-05-29T14:27:14;27.90;59.20
18868;DHT22;9563;49.240;9.088;2023-05-29T14:29:40;27.90;59.70
18868;DHT22;9563;49.240;9.088;2023-05-29T14:32:07;27.90;59.40
18868;DHT22;9563;49.240;9.088;2023-05-29T14:34:34;27.80;60.40
18868;DHT22;9563;49.240;9.088;2023-05-29T14:37:02;27.80;61.30
18868;DHT22;9563;49.240;9.088;2023-05-29T14:39:29;27.80;60.60
18868;DHT22;9563;49.240;9.088;2023-05-29T14:41:56;27.70;60.70
18868;DHT22;9563;49.240;9.088;2023-05-29T14:44:23;27.70;61.60
18868;DHT22;9563;49.240;9.088;2023-05-29T14:46:50;27.70;58.80
18868;DHT22;9563;49.240;9.088;2023-05-29T14:49:16;27.70;59.40
18868;DHT22;9563;49.240;9.088;2023-05-29T14:51:44;27.80;61.60
18868;DHT22;9563;49.240;9.088;2023-05-29T14:54:12;27.80;60.70
18868;DHT22;9563;49.240;9.088;2023-05-29T14:56:39;27.70;58.70
18868;DHT22;9563;49.240;9.088;2023-05-29T14:59:05;27.70;58.80
18868;DHT22;9563;49.240;9.088;2023-05-29T15:01:32;27.70;58.70
18868;DHT22;9563;49.240;9.088;2023-05-29T15:03:59;27.80;61.00
18868;DHT22;9563;49.240;9.088;2023-05-29T15:06:26;27.70;59.70
18868;DHT22;9563;49.240;9.088;2023-05-29T15:08:53;27.60;58.30
18868;DHT22;9563;49.240;9.088;2023-05-29T15:11:23;27.40;58.40
18868;DHT22;9563;49.240;9.088;2023-05-29T15:13:49;27.30;59.10
18868;DHT22;9563;49.240;9.088;2023-05-29T15:16:16;27.50;59.10
18868;DHT22;9563;49.240;9.088;2023-05-29T15:18:43;27.20;59.50
18868;DHT22;9563;49.240;9.088;2023-05-29T15:21:10;27.10;59.80
18868;DHT22;9563;49.240;9.088;2023-05-29T15:23:37;27.00;60.80
18868;DHT22;9563;49.240;9.088;2023-05-29T15:26:04;27.10;60.10
18868;DHT22;9563;49.240;9.088;2023-05-29T15:28:33;27.10;60.30
18868;DHT22;9563;49.240;9.088;2023-05-29T15:30:59;27.10;62.00
18868;DHT22;9563;49.240;9.088;2023-05-29T15:33:27;27.20;62.50
18868;DHT22;9563;49.240;9.088;2023-05-29T15:35:53;27.30;60.70
18868;DHT22;9563;49.240;9.088;2023-05-29T15:38:20;27.20;60.00
18868;DHT22;9563;49.240;9.088;2023-05-29T15:40:47;27.20;60.90
18868;DHT22;9563;49.240;9.088;2023-05-29T15:43:14;27.10;62.30
18868;DHT22;9563;49.240;9.088;2023-05-29T15:45:42;27.30;61.70
18868;DHT22;9563;49.240;9.088;2023-05-29T15:48:09;27.20;59.80
18868;DHT22;9563;49.240;9.088;2023-05-29T15:50:36;27.20;60.70
18868;DHT22;9563;49.240;9.088;2023-05-29T15:53:03;27.10;61.80
18868;DHT22;9563;49.240;9.088;2023-05-29T15:55:29;27.10;61.00
18868;DHT22;9563;49.240;9.088;2023-05-29T15:57:56;26.80;59.50
18868;DHT22;9563;49.240;9.088;2023-05-29T16:00:23;26.80;61.70
18868;DHT22;9563;49.240;9.088;2023-05-29T16:02:52;26.70;62.30
18868;DHT22;9563;49.240;9.088;2023-05-29T16:05:19;26.60;62.40
18868;DHT22;9563;49.240;9.088;2023-05-29T16:07:46;26.50;62.80
18868;DHT22;9563;49.240;9.088;2023-05-29T16:10:14;26.40;62.20
18868;DHT22;9563;49.240;9.088;2023-05-29T16:12:42;26.30;62.00
18868;DHT22;9563;49.240;9.088;2023-05-29T16:15:11;26.20;62.10
18868;DHT22;9563;49.240;9.088;2023-05-29T16:17:38;25.90;62.90
18868;DHT22;9563;49.240;9.088;2023-05-29T16:20:06;25.80;63.00
18868;DHT22;9563;49.240;9.088;2023-05-29T16:22:33;25.80;64.10
18868;DHT22;9563;49.240;9.088;2023-05-29T16:25:00;25.80;63.70
18868;DHT22;9563;49.240;9.088;2023-05-29T16:27:27;25.50;63.40
18868;DHT22;9563;49.240;9.088;2023-05-29T16:29:54;25.40;63.00
18868;DHT22;9563;49.240;9.088;2023-05-29T16:32:21;25.40;65.00
18868;DHT22;9563;49.240;9.088;2023-05-29T16:34:48;25.40;65.50
18868;DHT22;9563;49.240;9.088;2023-05-29T16:37:17;25.40;65.00
18868;DHT22;9563;49.240;9.088;2023-05-29T16:39:43;25.40;63.50
18868;DHT22;9563;49.240;9.088;2023-05-29T16:42:10;25.40;65.50
18868;DHT22;9563;49.240;9.088;2023-05-29T16:44:38;25.40;65.60
18868;DHT22;9563;49.240;9.088;2023-05-29T16:47:05;25.40;63.70
18868;DHT22;9563;49.240;9.088;2023-05-29T16:49:31;25.30;64.40
18868;DHT22;9563;49.240;9.088;2023-05-29T16:51:58;25.30;65.60
18868;DHT22;9563;49.240;9.088;2023-05-29T16:54:27;25.30;64.50
18868;DHT22;9563;49.240;9.088;2023-05-29T16:56:56;25.30;65.10
18868;DHT22;9563;49.240;9.088;2023-05-29T16:59:23;25.40;65.20
18868;DHT22;9563;49.240;9.088;2023-05-29T17:01:50;25.40;67.20
18868;DHT22;9563;49.240;9.088;2023-05-29T17:04:17;25.30;69.10
18868;DHT22;9563;49.240;9.088;2023-05-29T17:06:44;25.30;66.80
18868;DHT22;9563;49.240;9.088;2023-05-29T17:09:11;25.20;64.90
18868;DHT22;9563;49.240;9.088;2023-05-29T17:11:40;25.10;64.00
18868;DHT22;9563;49.240;9.088;2023-05-29T17:14:06;25.00;63.10
18868;DHT22;9563;49.240;9.088;2023-05-29T17:16:34;25.00;63.70
18868;DHT22;9563;49.240;9.088;2023-05-29T17:19:00;24.90;65.50
18868;DHT22;9563;49.240;9.088;2023-05-29T17:21:27;24.80;66.60
18868;DHT22;9563;49.240;9.088;2023-05-29T17:23:54;24.70;67.80
18868;DHT22;9563;49.240;9.088;2023-05-29T17:26:21;24.70;68.70
18868;DHT22;9563;49.240;9.088;2023-05-29T17:28:50;24.60;70.20
18868;DHT22;9563;49.240;9.088;2023-05-29T17:31:17;24.50;68.90
18868;DHT22;9563;49.240;9.088;2023-05-29T17:33:44;24.40;69.50
18868;DHT22;9563;49.240;9.088;2023-05-29T17:36:11;24.40;69.80
18868;DHT22;9563;49.240;9.088;2023-05-29T17:38:38;24.30;71.20
18868;DHT22;9563;49.240;9.088;2023-05-29T17:41:05;24.20;70.90
18868;DHT22;9563;49.240;9.088;2023-05-29T17:43:32;24.00;70.90
18868;DHT22;9563;49.240;9.088;2023-05-29T17:46:01;24.00;71.20
18868;DHT22;9563;49.240;9.088;2023-05-29T17:48:27;24.00;71.10
18868;DHT22;9563;49.240;9.088;2023-05-29T17:50:54;23.80;70.80
18868;DHT22;9563;49.240;9.088;2023-05-29T17:53:21;23.80;71.30
18868;DHT22;9563;49.240;9.088;2023-05-29T17:55:48;23.80;71.30
18868;DHT22;9563;49.240;9.088;2023-05-29T17:58:15;23.70;70.20
18868;DHT22;9563;49.240;9.088;2023-05-29T18:00:42;23.70;70.60
18868;DHT22;9563;49.240;9.088;2023-05-29T18:03:10;23.60;71.70
18868;DHT22;9563;49.240;9.088;2023-05-29T18:05:37;23.60;71.20
18868;DHT22;9563;49.240;9.088;2023-05-29T18:08:04;23.50;71.30
18868;DHT22;9563;49.240;9.088;2023-05-29T18:10:31;23.40;71.70
18868;DHT22;9563;49.240;9.088;2023-05-29T18:12:58;23.30;71.90
18868;DHT22;9563;49.240;9.088;2023-05-29T18:15:25;23.30;72.80
18868;DHT22;9563;49.240;9.088;2023-05-29T18:17:51;23.20;74.00
18868;DHT22;9563;49.240;9.088;2023-05-29T18:20:20;23.10;74.40
18868;DHT22;9563;49.240;9.088;2023-05-29T18:22:53;23.00;74.40
18868;DHT22;9563;49.240;9.088;2023-05-29T18:25:20;22.90;74.20
18868;DHT22;9563;49.240;9.088;2023-05-29T18:27:47;22.80;73.70
18868;DHT22;9563;49.240;9.088;2023-05-29T18:30:15;22.70;73.60
18868;DHT22;9563;49.240;9.088;2023-05-29T18:32:42;22.60;74.70
18868;DHT22;9563;49.240;9.088;2023-05-29T18:35:09;22.50;74.30
18868;DHT22;9563;49.240;9.088;2023-05-29T18:37:37;22.40;73.80
18868;DHT22;9563;49.240;9.088;2023-05-29T18:40:05;22.40;73.90
18868;DHT22;9563;49.240;9.088;2023-05-29T18:42:32;22.30;73.90
18868;DHT22;9563;49.240;9.088;2023-05-29T18:44:59;22.30;75.20
18868;DHT22;9563;49.240;9.088;2023-05-29T18:47:26;22.20;74.90
18868;DHT22;9563;49.240;9.088;2023-05-29T18:49:53;22.20;75.20
18868;DHT22;9563;49.240;9.088;2023-05-29T18:52:21;22.10;75.20
18868;DHT22;9563;49.240;9.088;2023-05-29T18:54:49;22.10;74.30
18868;DHT22;9563;49.240;9.088;2023-05-29T18:57:16;22.00;75.20
18868;DHT22;9563;49.240;9.088;2023-05-29T18:59:43;22.00;74.90
18868;DHT22;9563;49.240;9.088;2023-05-29T19:02:10;21.90;74.70
18868;DHT22;9563;49.240;9.088;2023-05-29T19:04:37;21.90;75.10
18868;DHT22;9563;49.240;9.088;2023-05-29T19:07:04;21.80;75.00
18868;DHT22;9563;49.240;9.088;2023-05-29T19:09:31;21.80;74.60
18868;DHT22;9563;49.240;9.088;2023-05-29T19:12:00;21.80;75.50
18868;DHT22;9563;49.240;9.088;2023-05-29T19:14:27;21.60;75.80
18868;DHT22;9563;49.240;9.088;2023-05-29T19:16:54;21.60;75.60
18868;DHT22;9563;49.240;9.088;2023-05-29T19:19:21;21.50;76.50
18868;DHT22;9563;49.240;9.088;2023-05-29T19:21:48;21.50;76.10
18868;DHT22;9563;49.240;9.088;2023-05-29T19:24:15;21.40;76.30
18868;DHT22;9563;49.240;9.088;2023-05-29T19:26:44;21.30;77.30
18868;DHT22;9563;49.240;9.088;2023-05-29T19:29:13;21.20;77.00
18868;DHT22;9563;49.240;9.088;2023-05-29T19:31:43;21.20;77.40
18868;DHT22;9563;49.240;9.088;2023-05-29T19:34:12;21.20;77.40
18868;DHT22;9563;49.240;9.088;2023-05-29T19:36:39;21.20;77.40
18868;DHT22;9563;49.240;9.088;2023-05-29T19:39:06;21.10;77.90
18868;DHT22;9563;49.240;9.088;2023-05-29T19:41:33;21.00;77.90
18868;DHT22;9563;49.240;9.088;2023-05-29T19:44:01;21.00;78.60
18868;DHT22;9563;49.240;9.088;2023-05-29T19:46:31;20.90;78.30
18868;DHT22;9563;49.240;9.088;2023-05-29T19:48:58;20.90;78.90
18868;DHT22;9563;49.240;9.088;2023-05-29T19:51:25;20.80;78.80
18868;DHT22;9563;49.240;9.088;2023-05-29T19:53:52;20.70;79.80
18868;DHT22;9563;49.240;9.088;2023-05-29T19:56:18;20.70;79.90
18868;DHT22;9563;49.240;9.088;2023-05-29T19:58:45;20.70;80.10
18868;DHT22;9563;49.240;9.088;2023-05-29T20:01:14;20.60;80.50
18868;DHT22;9563;49.240;9.088;2023-05-29T20:03:42;20.60;81.00
18868;DHT22;9563;49.240;9.088;2023-05-29T20:06:09;20.60;81.40
18868;DHT22;9563;49.240;9.088;2023-05-29T20:08:36;20.50;81.10
18868;DHT22;9563;49.240;9.088;2023-05-29T20:11:04;20.50;82.40
18868;DHT22;9563;49.240;9.088;2023-05-29T20:13:30;20.50;81.60
18868;DHT22;9563;49.240;9.088;2023-05-29T20:15:57;20.40;82.60
18868;DHT22;9563;49.240;9.088;2023-05-29T20:18:25;20.40;82.90
18868;DHT22;9563;49.240;9.088;2023-05-29T20:20:54;20.30;83.20
18868;DHT22;9563;49.240;9.088;2023-05-29T20:23:20;20.30;83.60
18868;DHT22;9563;49.240;9.088;2023-05-29T20:25:47;20.30;84.20
18868;DHT22;9563;49.240;9.088;2023-05-29T20:28:14;20.20;84.50
18868;DHT22;9563;49.240;9.088;2023-05-29T20:30:41;20.20;84.80
18868;DHT22;9563;49.240;9.088;2023-05-29T20:33:08;20.10;85.20
18868;DHT22;9563;49.240;9.088;2023-05-29T20:35:35;20.10;85.70
18868;DHT22;9563;49.240;9.088;2023-05-29T20:38:05;20.10;86.20
18868;DHT22;9563;49.240;9.088;2023-05-29T20:40:32;20.10;87.00
18868;DHT22;9563;49.240;9.088;2023-05-29T20:43:01;20.00;87.00
18868;DHT22;9563;49.240;9.088;2023-05-29T20:45:30;20.00;87.50
18868;DHT22;9563;49.240;9.088;2023-05-29T20:47:57;19.90;88.00
18868;DHT22;9563;49.240;9.088;2023-05-29T20:50:25;19.90;88.50
18868;DHT22;9563;49.240;9.088;2023-05-29T20:52:52;19.80;88.90
18868;DHT22;9563;49.240;9.088;2023-05-29T20:55:20;19.80;89.80